Jacob_Sim's ATC Tracking Thread Closed

Welcome Infinite Flight Community!

This is my ATC tracking thread for my ATC sessions. Whenever I am controlling I will change the title from closed to open and leave a comment below. I will always be controlling GND & TWR or just TWR if that is only available

I would appreciate constructive feedback left below, if you need to talk about anything else please PM to avoid cluttering this thread - Thanks.

2 Likes

Wednesday 27 March - YBBN Brisbane International Airport Now Closed

Open for 60 minutes (0540-0640 ZULU) (1540-1640 AEST)
Airport: YBBN (Brisbane Airport)
Session: Global Training Server

NOTAM: Intersection Departures Ok, no aircraft restrictions RWY 19 & 14 in use

METAR: YBBN 270500Z 18008KT 9999 -RA FEW008 SCT025 BKN040 21/20 Q1018

This is my home airport and my favourite

1 Like

Argh my live sub ran out today, I’ll be at the next one :)

1 Like

Thursday 28 March - YCFS Coffs Harbour Airport Now Closed

Open for 50 minutes (2335-0025 ZULU) (1035-1125 AEDT)
Airport: YCFS (Coffs Harbour Airport)
Session: Global Training Server

NOTAM: RWY 21 is in use, no aircraft larger than Q400, there is no GND frequency

METAR: YCFS 272300Z AUTO 24007KT 9999 // OVC058 22/18 Q1021 RF00.0/000.0

Saturday 30 March - EGJJ Jersey Airport Now Closed

Open for 45 minutes (06:30-07:15 ZULU)
Airport: EGJJ (Jersey Airport)
Session: Global Training Server

NOTAM: RWY 08 is in use, no aircraft larger than E195

METAR: EGJJ 300550Z 10004KT CAVOK 09/05 Q1020

On my way!

1 Like

I’ll be down in a bit!

1 Like

Sorry. Not too sure if I can come down anymore

1 Like

Excellent work Jacob. There’s not much I can fault you on here.
Just work on getting your clearances in a bit faster.
Other than that, it’s looking good.
I’d love to see how you do with more traffic.
See you at the next one,
Josh

1 Like

Monday 01 April - PHOG Kahului International Now Closed

Open for 40 minutes (00:20-01:00 ZULU) (14:20-15:00 HST)
Airport: PHOG (Kahului Airport Airport)
Session: Global Training Server

NOTAM: RWY 02 is in use, no aircraft larger than 777-200, intersection departures okay

METAR: PHOG 312354Z 01011KT 10SM FEW025 SCT050 29/19 A2991 RMK AO2 SLP133 T02890194 10306 20228 58024 $

This topic was automatically closed 90 days after the last reply. New replies are no longer allowed.